Flight Track Log - Related Links

Times and Time Zones

All times are in EDT time to prevent confusion due to time zone crossing. See the N27XP flight status page for this flight to view local times or setup timezone preferences in your user account.


Time Position Orientation Groundspeed Altitude Reporting Facility
EDT Latitude Longitude Course Direction KTS MPH feet Rate Location/Type
Fri 01:58:00 PM 35.2142 -79.5406 248° West  Level FlightAware Approximate
Fri 01:59:00 PM 35.2368 -79.4583 270° West  Level Estimated
Fri 01:59:15 PM 35.2153 -79.8619 264° West 263 303 6,000  Level Atlanta Center
Fri 02:00:00 PM 35.2291 -79.5269 262° West  Level FlightAware Approximate
Fri 02:00:28 PM 35.2064 -79.9717 264° West 268 308 6,000  Level Atlanta Center
Fri 02:01:00 PM 35.2214 -79.5955 262° West  Level FlightAware Approximate
Fri 02:01:17 PM 35.2067 -80.0403 270° West 261 300 6,000  Level Atlanta Center
Fri 02:02:00 PM 35.2213 -79.6648 270° West  Level Estimated
Fri 02:02:12 PM 35.2053 -80.1242 269° West 262 302 6,000  Level Atlanta Center
Fri 02:03:00 PM 35.2213 -79.7340 270° West  Level Estimated
Fri 02:03:25 PM 35.1981 -80.2264 265° West 258 297 5,900  Level Atlanta Center
Fri 02:04:00 PM 35.2155 -79.8029 264° West  Level FlightAware Approximate
Fri 02:04:26 PM 35.1756 -80.3136 253° West 274 315 4,100  Level Atlanta Center
Fri 02:05:15 PM 35.1547 -80.3808 249° West 256 295 4,000 -55 Descending Atlanta Center
Fri 02:06:16 PM 35.1297 -80.4581 248° West 243 280 4,000  Level Atlanta Center
Fri 02:07:16 PM 35.1072 -80.5403 252° West 252 290 4,000  Level Atlanta Center
Fri 02:08:17 PM 35.0844 -80.6225 251° West 257 296 4,000  Level Atlanta Center
Fri 02:09:24 PM 35.0683 -80.7194 259° West 259 298 4,000  Level Atlanta Center
Fri 02:10:19 PM 35.0847 -80.7900 286° West 256 295 4,000 -621 Level Atlanta Center
Fri 02:11:20 PM 35.1183 -80.8697 297° West 239 275 2,800 -1,091 Descending Atlanta Center
Fri 02:12:20 PM 35.1528 -80.9194 310° West 171 197 1,800 -893 Descending Atlanta Center
Fri 02:13:21 PM 35.1886 -80.9358 340° North 125 144 1,000 -787 Descending Atlanta Center

Login

Don't have an account? Register now (free) for customized features, flight alerts, and more!